Аэропорт
Худжанд (UTDL)

 UTDL / LBD
ЗЦ Центральная Азия
Душанбе (UTDD)
Душанбе (UTDD)
 40.21540, 69.69470  / 1450 ft

 UTDL 251200Z 25005MPS 9999 FEW086 33/12 Q1009 R26/CLRD70 NOSIG RMK QFE719/0959
 TAF UTDL 250600Z 2507/2516 VRB02MPS 9999 NSC BECMG 2509/2511 24005MPS FEW050
UTDL_aip_1705
показать схемы

2019 © VATRUS division (Privacy Policy)